sensor_id;sensor_type;location;lat;lon;timestamp;P1;durP1;ratioP1;P2;durP2;ratioP2
51995;SDS011;38010;53.264;6.592;2023-02-02T00:01:54;2.03;;;1.10;;
51995;SDS011;38010;53.264;6.592;2023-02-02T00:04:29;3.22;;;1.20;;
51995;SDS011;38010;53.264;6.592;2023-02-02T00:06:57;4.50;;;1.30;;
51995;SDS011;38010;53.264;6.592;2023-02-02T00:09:23;3.22;;;1.50;;
51995;SDS011;38010;53.264;6.592;2023-02-02T00:11:53;2.97;;;1.40;;
51995;SDS011;38010;53.264;6.592;2023-02-02T00:14:19;3.25;;;1.42;;
51995;SDS011;38010;53.264;6.592;2023-02-02T00:16:46;2.80;;;1.02;;
51995;SDS011;38010;53.264;6.592;2023-02-02T00:19:14;4.32;;;1.17;;
51995;SDS011;38010;53.264;6.592;2023-02-02T00:21:41;3.95;;;1.15;;
51995;SDS011;38010;53.264;6.592;2023-02-02T00:24:08;2.10;;;1.27;;
51995;SDS011;38010;53.264;6.592;2023-02-02T00:26:36;3.90;;;1.13;;
51995;SDS011;38010;53.264;6.592;2023-02-02T00:29:03;2.58;;;1.08;;
51995;SDS011;38010;53.264;6.592;2023-02-02T00:31:30;2.53;;;1.00;;
51995;SDS011;38010;53.264;6.592;2023-02-02T00:33:56;3.85;;;1.40;;
51995;SDS011;38010;53.264;6.592;2023-02-02T00:36:22;4.60;;;1.30;;
51995;SDS011;38010;53.264;6.592;2023-02-02T00:38:48;3.80;;;1.50;;
51995;SDS011;38010;53.264;6.592;2023-02-02T00:41:14;2.88;;;1.25;;
51995;SDS011;38010;53.264;6.592;2023-02-02T00:43:40;2.92;;;1.00;;
51995;SDS011;38010;53.264;6.592;2023-02-02T00:46:08;1.77;;;0.95;;
51995;SDS011;38010;53.264;6.592;2023-02-02T00:48:38;1.92;;;0.82;;
51995;SDS011;38010;53.264;6.592;2023-02-02T00:51:04;3.10;;;1.10;;
51995;SDS011;38010;53.264;6.592;2023-02-02T00:53:30;2.97;;;1.20;;
51995;SDS011;38010;53.264;6.592;2023-02-02T00:55:55;3.65;;;1.00;;
51995;SDS011;38010;53.264;6.592;2023-02-02T00:58:21;3.75;;;0.82;;
51995;SDS011;38010;53.264;6.592;2023-02-02T01:00:47;3.55;;;1.10;;
51995;SDS011;38010;53.264;6.592;2023-02-02T01:03:12;4.75;;;1.30;;
51995;SDS011;38010;53.264;6.592;2023-02-02T01:05:38;3.70;;;1.15;;
51995;SDS011;38010;53.264;6.592;2023-02-02T01:08:04;3.40;;;1.25;;
51995;SDS011;38010;53.264;6.592;2023-02-02T01:10:30;3.15;;;1.27;;
51995;SDS011;38010;53.264;6.592;2023-02-02T01:12:58;4.18;;;1.42;;
51995;SDS011;38010;53.264;6.592;2023-02-02T01:15:23;3.00;;;1.40;;
51995;SDS011;38010;53.264;6.592;2023-02-02T01:17:49;3.28;;;1.20;;
51995;SDS011;38010;53.264;6.592;2023-02-02T01:20:16;3.17;;;1.55;;
51995;SDS011;38010;53.264;6.592;2023-02-02T01:22:43;7.30;;;1.30;;
51995;SDS011;38010;53.264;6.592;2023-02-02T01:25:09;3.40;;;1.10;;
51995;SDS011;38010;53.264;6.592;2023-02-02T01:27:35;3.28;;;1.67;;
51995;SDS011;38010;53.264;6.592;2023-02-02T01:30:01;3.22;;;1.40;;
51995;SDS011;38010;53.264;6.592;2023-02-02T01:32:26;3.47;;;1.35;;
51995;SDS011;38010;53.264;6.592;2023-02-02T01:34:52;2.40;;;0.90;;
51995;SDS011;38010;53.264;6.592;2023-02-02T01:37:18;3.60;;;1.10;;
51995;SDS011;38010;53.264;6.592;2023-02-02T01:39:46;4.20;;;1.50;;
51995;SDS011;38010;53.264;6.592;2023-02-02T01:42:14;2.67;;;1.20;;
51995;SDS011;38010;53.264;6.592;2023-02-02T01:47:56;1.02;;;0.93;;
51995;SDS011;38010;53.264;6.592;2023-02-02T01:50:25;2.80;;;1.30;;
51995;SDS011;38010;53.264;6.592;2023-02-02T01:52:54;3.63;;;1.67;;
51995;SDS011;38010;53.264;6.592;2023-02-02T01:55:22;3.75;;;1.17;;
51995;SDS011;38010;53.264;6.592;2023-02-02T02:03:21;2.38;;;1.13;;
51995;SDS011;38010;53.264;6.592;2023-02-02T02:05:54;3.42;;;1.45;;
51995;SDS011;38010;53.264;6.592;2023-02-02T02:08:25;3.25;;;1.30;;
51995;SDS011;38010;53.264;6.592;2023-02-02T02:10:53;3.25;;;1.30;;
51995;SDS011;38010;53.264;6.592;2023-02-02T02:13:21;4.10;;;1.63;;
51995;SDS011;38010;53.264;6.592;2023-02-02T02:16:51;3.38;;;1.20;;
51995;SDS011;38010;53.264;6.592;2023-02-02T02:22:15;3.33;;;1.25;;
51995;SDS011;38010;53.264;6.592;2023-02-02T02:36:37;3.30;;;1.25;;
51995;SDS011;38010;53.264;6.592;2023-02-02T02:39:21;2.35;;;1.00;;
51995;SDS011;38010;53.264;6.592;2023-02-02T02:41:49;3.63;;;0.90;;
51995;SDS011;38010;53.264;6.592;2023-02-02T02:44:19;7.22;;;1.60;;
51995;SDS011;38010;53.264;6.592;2023-02-02T02:46:47;4.10;;;1.27;;
51995;SDS011;38010;53.264;6.592;2023-02-02T02:49:13;3.38;;;1.30;;
51995;SDS011;38010;53.264;6.592;2023-02-02T02:51:46;2.63;;;1.08;;
51995;SDS011;38010;53.264;6.592;2023-02-02T02:54:17;3.28;;;1.23;;
51995;SDS011;38010;53.264;6.592;2023-02-02T02:56:51;3.90;;;1.50;;
51995;SDS011;38010;53.264;6.592;2023-02-02T03:11:10;3.25;;;1.48;;
51995;SDS011;38010;53.264;6.592;2023-02-02T03:13:38;2.92;;;1.58;;
51995;SDS011;38010;53.264;6.592;2023-02-02T03:16:05;2.83;;;1.00;;
51995;SDS011;38010;53.264;6.592;2023-02-02T03:18:31;3.28;;;1.38;;
51995;SDS011;38010;53.264;6.592;2023-02-02T03:20:58;1.77;;;0.98;;
51995;SDS011;38010;53.264;6.592;2023-02-02T03:23:24;2.33;;;1.00;;
51995;SDS011;38010;53.264;6.592;2023-02-02T03:25:50;3.35;;;1.30;;
51995;SDS011;38010;53.264;6.592;2023-02-02T03:28:16;2.92;;;1.10;;
51995;SDS011;38010;53.264;6.592;2023-02-02T03:30:43;3.20;;;1.27;;
51995;SDS011;38010;53.264;6.592;2023-02-02T03:33:10;2.90;;;1.33;;
51995;SDS011;38010;53.264;6.592;2023-02-02T03:35:38;1.90;;;1.02;;
51995;SDS011;38010;53.264;6.592;2023-02-02T03:38:04;2.00;;;0.98;;
51995;SDS011;38010;53.264;6.592;2023-02-02T03:40:29;2.97;;;1.00;;
51995;SDS011;38010;53.264;6.592;2023-02-02T03:42:55;2.15;;;0.95;;
51995;SDS011;38010;53.264;6.592;2023-02-02T03:45:21;1.92;;;1.00;;
51995;SDS011;38010;53.264;6.592;2023-02-02T03:47:47;2.10;;;1.20;;
51995;SDS011;38010;53.264;6.592;2023-02-02T03:50:13;2.13;;;1.10;;
51995;SDS011;38010;53.264;6.592;2023-02-02T03:52:39;1.67;;;0.90;;
51995;SDS011;38010;53.264;6.592;2023-02-02T03:55:05;3.45;;;1.10;;
51995;SDS011;38010;53.264;6.592;2023-02-02T03:57:31;2.40;;;0.90;;
51995;SDS011;38010;53.264;6.592;2023-02-02T03:59:57;1.33;;;0.82;;
51995;SDS011;38010;53.264;6.592;2023-02-02T04:02:22;2.53;;;0.90;;
51995;SDS011;38010;53.264;6.592;2023-02-02T04:04:48;4.18;;;1.45;;
51995;SDS011;38010;53.264;6.592;2023-02-02T04:07:14;1.92;;;0.93;;
51995;SDS011;38010;53.264;6.592;2023-02-02T04:09:40;2.28;;;0.90;;
51995;SDS011;38010;53.264;6.592;2023-02-02T04:12:05;3.10;;;1.00;;
51995;SDS011;38010;53.264;6.592;2023-02-02T04:14:31;2.33;;;0.90;;
51995;SDS011;38010;53.264;6.592;2023-02-02T04:16:57;2.30;;;0.88;;
51995;SDS011;38010;53.264;6.592;2023-02-02T04:19:23;3.38;;;1.23;;
51995;SDS011;38010;53.264;6.592;2023-02-02T04:21:48;1.88;;;1.00;;
51995;SDS011;38010;53.264;6.592;2023-02-02T04:24:14;3.80;;;1.00;;
51995;SDS011;38010;53.264;6.592;2023-02-02T04:26:40;3.00;;;1.08;;
51995;SDS011;38010;53.264;6.592;2023-02-02T04:29:06;1.73;;;0.90;;
51995;SDS011;38010;53.264;6.592;2023-02-02T04:31:32;2.65;;;0.88;;
51995;SDS011;38010;53.264;6.592;2023-02-02T04:33:58;2.33;;;0.93;;
51995;SDS011;38010;53.264;6.592;2023-02-02T04:36:24;1.83;;;0.93;;
51995;SDS011;38010;53.264;6.592;2023-02-02T04:38:51;2.72;;;1.00;;
51995;SDS011;38010;53.264;6.592;2023-02-02T04:41:18;1.95;;;0.90;;
51995;SDS011;38010;53.264;6.592;2023-02-02T04:43:44;2.17;;;1.08;;
51995;SDS011;38010;53.264;6.592;2023-02-02T04:46:10;1.88;;;0.90;;
51995;SDS011;38010;53.264;6.592;2023-02-02T04:48:37;2.17;;;0.80;;
51995;SDS011;38010;53.264;6.592;2023-02-02T04:51:06;2.83;;;1.08;;
51995;SDS011;38010;53.264;6.592;2023-02-02T04:53:33;1.98;;;0.85;;
51995;SDS011;38010;53.264;6.592;2023-02-02T04:56:07;1.60;;;0.70;;
51995;SDS011;38010;53.264;6.592;2023-02-02T04:58:35;2.85;;;0.85;;
51995;SDS011;38010;53.264;6.592;2023-02-02T05:01:06;1.63;;;0.60;;
51995;SDS011;38010;53.264;6.592;2023-02-02T05:03:36;1.65;;;0.70;;
51995;SDS011;38010;53.264;6.592;2023-02-02T05:06:02;0.90;;;0.80;;
51995;SDS011;38010;53.264;6.592;2023-02-02T05:08:28;2.88;;;0.82;;
51995;SDS011;38010;53.264;6.592;2023-02-02T05:10:54;1.50;;;0.75;;
51995;SDS011;38010;53.264;6.592;2023-02-02T05:13:20;1.48;;;0.98;;
51995;SDS011;38010;53.264;6.592;2023-02-02T05:15:45;1.73;;;0.80;;
51995;SDS011;38010;53.264;6.592;2023-02-02T05:18:11;1.88;;;0.70;;
51995;SDS011;38010;53.264;6.592;2023-02-02T05:20:37;1.35;;;0.63;;
51995;SDS011;38010;53.264;6.592;2023-02-02T05:23:03;1.27;;;0.80;;
51995;SDS011;38010;53.264;6.592;2023-02-02T05:25:28;1.98;;;0.90;;
51995;SDS011;38010;53.264;6.592;2023-02-02T05:27:54;2.42;;;0.80;;
51995;SDS011;38010;53.264;6.592;2023-02-02T05:30:20;0.60;;;0.50;;
51995;SDS011;38010;53.264;6.592;2023-02-02T05:32:46;1.05;;;0.60;;
51995;SDS011;38010;53.264;6.592;2023-02-02T05:35:11;0.80;;;0.55;;
51995;SDS011;38010;53.264;6.592;2023-02-02T05:37:37;1.55;;;0.70;;
51995;SDS011;38010;53.264;6.592;2023-02-02T05:40:03;1.70;;;0.70;;
51995;SDS011;38010;53.264;6.592;2023-02-02T05:42:29;0.98;;;0.60;;
51995;SDS011;38010;53.264;6.592;2023-02-02T05:44:55;1.23;;;0.50;;
51995;SDS011;38010;53.264;6.592;2023-02-02T05:47:20;1.00;;;0.60;;
51995;SDS011;38010;53.264;6.592;2023-02-02T05:49:46;1.95;;;0.73;;
51995;SDS011;38010;53.264;6.592;2023-02-02T05:52:14;0.75;;;0.50;;
51995;SDS011;38010;53.264;6.592;2023-02-02T05:54:43;1.23;;;0.55;;
51995;SDS011;38010;53.264;6.592;2023-02-02T05:57:08;2.00;;;0.70;;
51995;SDS011;38010;53.264;6.592;2023-02-02T05:59:34;2.13;;;0.70;;
51995;SDS011;38010;53.264;6.592;2023-02-02T06:02:00;0.80;;;0.63;;
51995;SDS011;38010;53.264;6.592;2023-02-02T06:04:26;1.02;;;0.60;;
51995;SDS011;38010;53.264;6.592;2023-02-02T06:06:51;0.73;;;0.50;;
51995;SDS011;38010;53.264;6.592;2023-02-02T06:09:17;1.05;;;0.50;;
51995;SDS011;38010;53.264;6.592;2023-02-02T06:11:43;0.98;;;0.50;;
51995;SDS011;38010;53.264;6.592;2023-02-02T06:14:09;2.05;;;0.63;;
51995;SDS011;38010;53.264;6.592;2023-02-02T06:16:35;1.45;;;0.60;;
51995;SDS011;38010;53.264;6.592;2023-02-02T06:19:01;0.98;;;0.70;;
51995;SDS011;38010;53.264;6.592;2023-02-02T06:21:28;1.55;;;0.60;;
51995;SDS011;38010;53.264;6.592;2023-02-02T06:23:56;1.25;;;0.60;;
51995;SDS011;38010;53.264;6.592;2023-02-02T06:26:22;1.42;;;0.50;;
51995;SDS011;38010;53.264;6.592;2023-02-02T06:28:50;0.47;;;0.40;;
51995;SDS011;38010;53.264;6.592;2023-02-02T06:31:17;0.65;;;0.50;;
51995;SDS011;38010;53.264;6.592;2023-02-02T06:33:44;0.80;;;0.50;;
51995;SDS011;38010;53.264;6.592;2023-02-02T06:36:16;2.67;;;0.68;;
51995;SDS011;38010;53.264;6.592;2023-02-02T06:38:42;2.85;;;0.68;;
51995;SDS011;38010;53.264;6.592;2023-02-02T06:41:07;2.95;;;1.00;;
51995;SDS011;38010;53.264;6.592;2023-02-02T06:43:33;5.28;;;0.90;;
51995;SDS011;38010;53.264;6.592;2023-02-02T06:45:59;3.65;;;1.10;;
51995;SDS011;38010;53.264;6.592;2023-02-02T06:48:25;3.03;;;0.98;;
51995;SDS011;38010;53.264;6.592;2023-02-02T06:50:51;4.43;;;1.17;;
51995;SDS011;38010;53.264;6.592;2023-02-02T06:53:17;2.67;;;0.80;;
51995;SDS011;38010;53.264;6.592;2023-02-02T06:55:56;3.53;;;0.80;;
51995;SDS011;38010;53.264;6.592;2023-02-02T06:58:24;1.83;;;0.93;;
51995;SDS011;38010;53.264;6.592;2023-02-02T07:00:51;2.85;;;0.80;;
51995;SDS011;38010;53.264;6.592;2023-02-02T07:03:17;2.10;;;0.70;;
51995;SDS011;38010;53.264;6.592;2023-02-02T07:05:45;1.35;;;0.80;;
51995;SDS011;38010;53.264;6.592;2023-02-02T07:08:12;1.45;;;0.82;;
51995;SDS011;38010;53.264;6.592;2023-02-02T07:10:38;2.38;;;0.98;;
51995;SDS011;38010;53.264;6.592;2023-02-02T07:13:04;2.13;;;0.70;;
51995;SDS011;38010;53.264;6.592;2023-02-02T07:15:31;1.90;;;0.75;;
51995;SDS011;38010;53.264;6.592;2023-02-02T07:17:58;1.27;;;0.65;;
51995;SDS011;38010;53.264;6.592;2023-02-02T07:20:24;1.17;;;0.60;;
51995;SDS011;38010;53.264;6.592;2023-02-02T07:22:50;1.52;;;0.60;;
51995;SDS011;38010;53.264;6.592;2023-02-02T07:25:16;2.55;;;0.60;;
51995;SDS011;38010;53.264;6.592;2023-02-02T07:27:42;2.17;;;0.70;;
51995;SDS011;38010;53.264;6.592;2023-02-02T07:30:07;3.08;;;0.85;;
51995;SDS011;38010;53.264;6.592;2023-02-02T07:32:34;2.80;;;0.70;;
51995;SDS011;38010;53.264;6.592;2023-02-02T07:34:59;2.20;;;0.63;;
51995;SDS011;38010;53.264;6.592;2023-02-02T07:37:25;2.20;;;0.63;;
51995;SDS011;38010;53.264;6.592;2023-02-02T07:39:51;1.08;;;0.60;;
51995;SDS011;38010;53.264;6.592;2023-02-02T07:42:16;1.58;;;0.60;;
51995;SDS011;38010;53.264;6.592;2023-02-02T07:44:45;0.77;;;0.45;;
51995;SDS011;38010;53.264;6.592;2023-02-02T07:47:11;0.68;;;0.60;;
51995;SDS011;38010;53.264;6.592;2023-02-02T07:49:36;1.48;;;0.60;;
51995;SDS011;38010;53.264;6.592;2023-02-02T07:52:02;1.05;;;0.50;;
51995;SDS011;38010;53.264;6.592;2023-02-02T07:54:28;1.38;;;0.68;;
51995;SDS011;38010;53.264;6.592;2023-02-02T07:56:55;1.08;;;0.50;;
51995;SDS011;38010;53.264;6.592;2023-02-02T07:59:21;1.35;;;0.40;;
51995;SDS011;38010;53.264;6.592;2023-02-02T08:01:47;1.23;;;0.50;;
51995;SDS011;38010;53.264;6.592;2023-02-02T08:04:13;2.05;;;0.70;;
51995;SDS011;38010;53.264;6.592;2023-02-02T08:06:39;1.02;;;0.60;;
51995;SDS011;38010;53.264;6.592;2023-02-02T08:09:06;1.10;;;0.50;;
51995;SDS011;38010;53.264;6.592;2023-02-02T08:11:33;1.02;;;0.57;;
51995;SDS011;38010;53.264;6.592;2023-02-02T08:14:01;0.50;;;0.40;;
51995;SDS011;38010;53.264;6.592;2023-02-02T08:16:28;0.63;;;0.43;;
51995;SDS011;38010;53.264;6.592;2023-02-02T08:18:55;0.93;;;0.60;;
51995;SDS011;38010;53.264;6.592;2023-02-02T08:21:21;0.98;;;0.50;;
51995;SDS011;38010;53.264;6.592;2023-02-02T08:23:47;0.98;;;0.60;;
51995;SDS011;38010;53.264;6.592;2023-02-02T08:28:46;0.93;;;0.50;;
51995;SDS011;38010;53.264;6.592;2023-02-02T08:31:17;1.23;;;0.60;;
51995;SDS011;38010;53.264;6.592;2023-02-02T08:33:47;0.52;;;0.40;;
51995;SDS011;38010;53.264;6.592;2023-02-02T08:36:13;0.70;;;0.50;;
51995;SDS011;38010;53.264;6.592;2023-02-02T08:38:40;0.80;;;0.43;;
51995;SDS011;38010;53.264;6.592;2023-02-02T08:41:06;1.15;;;0.57;;
51995;SDS011;38010;53.264;6.592;2023-02-02T08:43:33;0.50;;;0.50;;
51995;SDS011;38010;53.264;6.592;2023-02-02T08:45:59;0.60;;;0.40;;
51995;SDS011;38010;53.264;6.592;2023-02-02T08:48:25;0.82;;;0.40;;
51995;SDS011;38010;53.264;6.592;2023-02-02T08:50:55;0.68;;;0.40;;
51995;SDS011;38010;53.264;6.592;2023-02-02T08:53:21;0.85;;;0.50;;
51995;SDS011;38010;53.264;6.592;2023-02-02T08:55:56;0.70;;;0.43;;
51995;SDS011;38010;53.264;6.592;2023-02-02T08:58:26;1.10;;;0.40;;
51995;SDS011;38010;53.264;6.592;2023-02-02T09:00:52;0.30;;;0.30;;
51995;SDS011;38010;53.264;6.592;2023-02-02T09:03:18;0.50;;;0.40;;
51995;SDS011;38010;53.264;6.592;2023-02-02T09:05:44;1.13;;;0.60;;
51995;SDS011;38010;53.264;6.592;2023-02-02T09:08:10;0.93;;;0.57;;
51995;SDS011;38010;53.264;6.592;2023-02-02T09:10:36;0.50;;;0.40;;
51995;SDS011;38010;53.264;6.592;2023-02-02T09:13:03;0.95;;;0.70;;
51995;SDS011;38010;53.264;6.592;2023-02-02T09:15:29;0.63;;;0.32;;
51995;SDS011;38010;53.264;6.592;2023-02-02T09:17:55;0.43;;;0.40;;
51995;SDS011;38010;53.264;6.592;2023-02-02T09:20:21;0.75;;;0.50;;
51995;SDS011;38010;53.264;6.592;2023-02-02T09:22:47;1.40;;;0.52;;
51995;SDS011;38010;53.264;6.592;2023-02-02T09:25:13;0.68;;;0.40;;
51995;SDS011;38010;53.264;6.592;2023-02-02T09:27:39;0.60;;;0.40;;
51995;SDS011;38010;53.264;6.592;2023-02-02T09:30:06;0.70;;;0.50;;
51995;SDS011;38010;53.264;6.592;2023-02-02T09:32:32;0.77;;;0.40;;
51995;SDS011;38010;53.264;6.592;2023-02-02T09:34:58;0.70;;;0.38;;
51995;SDS011;38010;53.264;6.592;2023-02-02T09:37:24;0.80;;;0.40;;
51995;SDS011;38010;53.264;6.592;2023-02-02T09:39:51;0.63;;;0.32;;
51995;SDS011;38010;53.264;6.592;2023-02-02T09:42:20;0.68;;;0.40;;
51995;SDS011;38010;53.264;6.592;2023-02-02T09:45:16;0.40;;;0.38;;
51995;SDS011;38010;53.264;6.592;2023-02-02T09:52:48;0.85;;;0.32;;
51995;SDS011;38010;53.264;6.592;2023-02-02T09:55:36;0.90;;;0.40;;
51995;SDS011;38010;53.264;6.592;2023-02-02T10:03:36;0.57;;;0.43;;
51995;SDS011;38010;53.264;6.592;2023-02-02T10:11:44;0.68;;;0.35;;
51995;SDS011;38010;53.264;6.592;2023-02-02T10:14:17;0.63;;;0.40;;
51995;SDS011;38010;53.264;6.592;2023-02-02T10:19:13;1.58;;;0.40;;
51995;SDS011;38010;53.264;6.592;2023-02-02T10:21:42;0.30;;;0.30;;
51995;SDS011;38010;53.264;6.592;2023-02-02T10:24:27;0.43;;;0.30;;
51995;SDS011;38010;53.264;6.592;2023-02-02T10:26:54;0.35;;;0.30;;
51995;SDS011;38010;53.264;6.592;2023-02-02T10:37:34;0.30;;;0.30;;
51995;SDS011;38010;53.264;6.592;2023-02-02T10:46:08;0.30;;;0.30;;
51995;SDS011;38010;53.264;6.592;2023-02-02T10:51:40;0.30;;;0.30;;
51995;SDS011;38010;53.264;6.592;2023-02-02T10:56:58;0.35;;;0.35;;
51995;SDS011;38010;53.264;6.592;2023-02-02T10:59:29;0.30;;;0.30;;
51995;SDS011;38010;53.264;6.592;2023-02-02T11:01:57;0.75;;;0.45;;
51995;SDS011;38010;53.264;6.592;2023-02-02T11:04:23;0.30;;;0.30;;
51995;SDS011;38010;53.264;6.592;2023-02-02T11:07:08;0.60;;;0.50;;
51995;SDS011;38010;53.264;6.592;2023-02-02T11:09:44;0.90;;;0.40;;
51995;SDS011;38010;53.264;6.592;2023-02-02T11:12:24;0.38;;;0.38;;
51995;SDS011;38010;53.264;6.592;2023-02-02T11:14:59;0.47;;;0.40;;
51995;SDS011;38010;53.264;6.592;2023-02-02T11:17:46;0.30;;;0.30;;
51995;SDS011;38010;53.264;6.592;2023-02-02T11:20:22;0.80;;;0.40;;
51995;SDS011;38010;53.264;6.592;2023-02-02T11:23:02;0.38;;;0.38;;
51995;SDS011;38010;53.264;6.592;2023-02-02T11:25:37;0.30;;;0.30;;
51995;SDS011;38010;53.264;6.592;2023-02-02T11:28:19;0.68;;;0.50;;
51995;SDS011;38010;53.264;6.592;2023-02-02T11:30:49;0.77;;;0.30;;
51995;SDS011;38010;53.264;6.592;2023-02-02T11:35:55;0.40;;;0.40;;
51995;SDS011;38010;53.264;6.592;2023-02-02T11:38:22;0.50;;;0.50;;
51995;SDS011;38010;53.264;6.592;2023-02-02T11:46:26;0.60;;;0.40;;
51995;SDS011;38010;53.264;6.592;2023-02-02T11:51:26;0.30;;;0.22;;
51995;SDS011;38010;53.264;6.592;2023-02-02T11:56:33;0.40;;;0.30;;
51995;SDS011;38010;53.264;6.592;2023-02-02T11:59:01;0.52;;;0.32;;
51995;SDS011;38010;53.264;6.592;2023-02-02T12:01:29;0.40;;;0.40;;
51995;SDS011;38010;53.264;6.592;2023-02-02T12:03:57;0.70;;;0.40;;
51995;SDS011;38010;53.264;6.592;2023-02-02T12:08:58;0.30;;;0.30;;
51995;SDS011;38010;53.264;6.592;2023-02-02T12:20:04;0.85;;;0.43;;
51995;SDS011;38010;53.264;6.592;2023-02-02T12:31:28;0.52;;;0.40;;
51995;SDS011;38010;53.264;6.592;2023-02-02T12:40:02;0.40;;;0.40;;
51995;SDS011;38010;53.264;6.592;2023-02-02T12:45:33;0.50;;;0.50;;
51995;SDS011;38010;53.264;6.592;2023-02-02T12:56:44;0.75;;;0.50;;
51995;SDS011;38010;53.264;6.592;2023-02-02T13:08:02;1.25;;;0.40;;
51995;SDS011;38010;53.264;6.592;2023-02-02T13:10:44;0.70;;;0.40;;
51995;SDS011;38010;53.264;6.592;2023-02-02T13:13:21;0.40;;;0.40;;
51995;SDS011;38010;53.264;6.592;2023-02-02T13:15:56;0.77;;;0.40;;
51995;SDS011;38010;53.264;6.592;2023-02-02T13:18:48;0.50;;;0.40;;
51995;SDS011;38010;53.264;6.592;2023-02-02T13:21:20;0.60;;;0.40;;
51995;SDS011;38010;53.264;6.592;2023-02-02T13:23:52;0.80;;;0.50;;
51995;SDS011;38010;53.264;6.592;2023-02-02T13:26:23;1.05;;;0.43;;
51995;SDS011;38010;53.264;6.592;2023-02-02T13:28:54;0.30;;;0.30;;
51995;SDS011;38010;53.264;6.592;2023-02-02T13:31:26;0.47;;;0.40;;
51995;SDS011;38010;53.264;6.592;2023-02-02T13:34:06;0.60;;;0.40;;
51995;SDS011;38010;53.264;6.592;2023-02-02T13:36:51;0.63;;;0.40;;
51995;SDS011;38010;53.264;6.592;2023-02-02T13:39:32;0.45;;;0.32;;
51995;SDS011;38010;53.264;6.592;2023-02-02T13:42:03;0.32;;;0.30;;
51995;SDS011;38010;53.264;6.592;2023-02-02T13:44:42;0.45;;;0.32;;
51995;SDS011;38010;53.264;6.592;2023-02-02T13:47:18;0.70;;;0.40;;
51995;SDS011;38010;53.264;6.592;2023-02-02T13:50:15;0.75;;;0.40;;
51995;SDS011;38010;53.264;6.592;2023-02-02T14:00:47;0.70;;;0.47;;
51995;SDS011;38010;53.264;6.592;2023-02-02T14:05:44;0.40;;;0.40;;
51995;SDS011;38010;53.264;6.592;2023-02-02T14:08:34;0.75;;;0.40;;
51995;SDS011;38010;53.264;6.592;2023-02-02T14:11:01;0.65;;;0.40;;
51995;SDS011;38010;53.264;6.592;2023-02-02T14:13:36;0.32;;;0.32;;
51995;SDS011;38010;53.264;6.592;2023-02-02T14:19:01;0.63;;;0.50;;
51995;SDS011;38010;53.264;6.592;2023-02-02T14:24:01;0.60;;;0.30;;
51995;SDS011;38010;53.264;6.592;2023-02-02T14:26:46;0.30;;;0.30;;
51995;SDS011;38010;53.264;6.592;2023-02-02T14:34:48;0.45;;;0.40;;
51995;SDS011;38010;53.264;6.592;2023-02-02T14:48:37;0.93;;;0.40;;
51995;SDS011;38010;53.264;6.592;2023-02-02T14:53:45;0.82;;;0.40;;
51995;SDS011;38010;53.264;6.592;2023-02-02T14:56:16;0.63;;;0.40;;
51995;SDS011;38010;53.264;6.592;2023-02-02T14:58:59;0.90;;;0.38;;
51995;SDS011;38010;53.264;6.592;2023-02-02T15:01:30;0.40;;;0.30;;
51995;SDS011;38010;53.264;6.592;2023-02-02T15:04:20;0.47;;;0.40;;
51995;SDS011;38010;53.264;6.592;2023-02-02T15:06:46;0.45;;;0.30;;
51995;SDS011;38010;53.264;6.592;2023-02-02T15:14:32;0.40;;;0.30;;
51995;SDS011;38010;53.264;6.592;2023-02-02T15:25:23;0.75;;;0.40;;
51995;SDS011;38010;53.264;6.592;2023-02-02T15:30:53;0.57;;;0.35;;
51995;SDS011;38010;53.264;6.592;2023-02-02T15:33:34;0.93;;;0.50;;
51995;SDS011;38010;53.264;6.592;2023-02-02T15:36:05;0.30;;;0.30;;
51995;SDS011;38010;53.264;6.592;2023-02-02T15:38:37;0.55;;;0.47;;
51995;SDS011;38010;53.264;6.592;2023-02-02T15:41:27;0.50;;;0.50;;
51995;SDS011;38010;53.264;6.592;2023-02-02T15:43:51;0.35;;;0.30;;
51995;SDS011;38010;53.264;6.592;2023-02-02T15:46:20;0.70;;;0.43;;
51995;SDS011;38010;53.264;6.592;2023-02-02T15:51:44;0.68;;;0.40;;
51995;SDS011;38010;53.264;6.592;2023-02-02T15:56:54;0.30;;;0.30;;
51995;SDS011;38010;53.264;6.592;2023-02-02T15:59:25;0.40;;;0.30;;
51995;SDS011;38010;53.264;6.592;2023-02-02T16:02:16;0.45;;;0.40;;
51995;SDS011;38010;53.264;6.592;2023-02-02T16:04:47;0.30;;;0.30;;
51995;SDS011;38010;53.264;6.592;2023-02-02T16:07:14;0.30;;;0.30;;
51995;SDS011;38010;53.264;6.592;2023-02-02T16:09:43;0.50;;;0.40;;
51995;SDS011;38010;53.264;6.592;2023-02-02T16:12:13;0.40;;;0.40;;
51995;SDS011;38010;53.264;6.592;2023-02-02T16:14:45;0.40;;;0.40;;
51995;SDS011;38010;53.264;6.592;2023-02-02T16:17:19;0.32;;;0.32;;
51995;SDS011;38010;53.264;6.592;2023-02-02T16:19:55;0.70;;;0.50;;
51995;SDS011;38010;53.264;6.592;2023-02-02T16:22:25;0.40;;;0.40;;
51995;SDS011;38010;53.264;6.592;2023-02-02T16:24:55;0.40;;;0.40;;
51995;SDS011;38010;53.264;6.592;2023-02-02T16:27:25;0.90;;;0.45;;
51995;SDS011;38010;53.264;6.592;2023-02-02T16:29:53;0.30;;;0.30;;
51995;SDS011;38010;53.264;6.592;2023-02-02T16:32:26;0.40;;;0.40;;
51995;SDS011;38010;53.264;6.592;2023-02-02T16:34:54;0.50;;;0.50;;
51995;SDS011;38010;53.264;6.592;2023-02-02T16:37:21;0.38;;;0.32;;
51995;SDS011;38010;53.264;6.592;2023-02-02T16:40:16;1.42;;;0.40;;
51995;SDS011;38010;53.264;6.592;2023-02-02T16:45:58;0.43;;;0.40;;
51995;SDS011;38010;53.264;6.592;2023-02-02T16:53:43;0.47;;;0.30;;
51995;SDS011;38010;53.264;6.592;2023-02-02T16:58:57;0.85;;;0.50;;
51995;SDS011;38010;53.264;6.592;2023-02-02T17:01:38;0.80;;;0.38;;
51995;SDS011;38010;53.264;6.592;2023-02-02T17:04:14;0.52;;;0.43;;
51995;SDS011;38010;53.264;6.592;2023-02-02T17:06:43;0.40;;;0.40;;
51995;SDS011;38010;53.264;6.592;2023-02-02T17:09:18;0.40;;;0.40;;
51995;SDS011;38010;53.264;6.592;2023-02-02T17:14:51;0.47;;;0.47;;
51995;SDS011;38010;53.264;6.592;2023-02-02T17:17:19;0.60;;;0.50;;
51995;SDS011;38010;53.264;6.592;2023-02-02T17:19:45;1.17;;;0.50;;
51995;SDS011;38010;53.264;6.592;2023-02-02T17:22:13;0.85;;;0.52;;
51995;SDS011;38010;53.264;6.592;2023-02-02T17:24:45;0.50;;;0.43;;
51995;SDS011;38010;53.264;6.592;2023-02-02T17:27:14;0.52;;;0.52;;
51995;SDS011;38010;53.264;6.592;2023-02-02T17:29:51;1.27;;;0.60;;
51995;SDS011;38010;53.264;6.592;2023-02-02T17:32:18;1.05;;;0.55;;
51995;SDS011;38010;53.264;6.592;2023-02-02T17:34:43;0.80;;;0.50;;
51995;SDS011;38010;53.264;6.592;2023-02-02T17:37:10;1.25;;;0.50;;
51995;SDS011;38010;53.264;6.592;2023-02-02T17:39:36;1.20;;;0.60;;
51995;SDS011;38010;53.264;6.592;2023-02-02T17:42:02;1.60;;;0.52;;
51995;SDS011;38010;53.264;6.592;2023-02-02T17:44:29;1.15;;;0.65;;
51995;SDS011;38010;53.264;6.592;2023-02-02T17:46:55;1.25;;;0.57;;
51995;SDS011;38010;53.264;6.592;2023-02-02T17:49:20;1.02;;;0.70;;
51995;SDS011;38010;53.264;6.592;2023-02-02T17:51:46;3.25;;;0.60;;
51995;SDS011;38010;53.264;6.592;2023-02-02T17:54:13;1.58;;;0.73;;
51995;SDS011;38010;53.264;6.592;2023-02-02T17:56:40;0.65;;;0.50;;
51995;SDS011;38010;53.264;6.592;2023-02-02T17:59:07;0.95;;;0.75;;
51995;SDS011;38010;53.264;6.592;2023-02-02T18:01:34;1.10;;;0.70;;
51995;SDS011;38010;53.264;6.592;2023-02-02T18:04:03;1.33;;;0.75;;
51995;SDS011;38010;53.264;6.592;2023-02-02T18:06:30;1.35;;;0.60;;
51995;SDS011;38010;53.264;6.592;2023-02-02T18:08:55;1.30;;;0.60;;
51995;SDS011;38010;53.264;6.592;2023-02-02T18:11:21;1.75;;;0.70;;
51995;SDS011;38010;53.264;6.592;2023-02-02T18:13:47;1.02;;;0.80;;
51995;SDS011;38010;53.264;6.592;2023-02-02T18:16:13;2.67;;;0.88;;
51995;SDS011;38010;53.264;6.592;2023-02-02T18:18:39;1.02;;;0.82;;
51995;SDS011;38010;53.264;6.592;2023-02-02T18:21:08;1.13;;;0.60;;
51995;SDS011;38010;53.264;6.592;2023-02-02T18:23:35;1.52;;;0.75;;
51995;SDS011;38010;53.264;6.592;2023-02-02T18:26:15;1.10;;;0.70;;
51995;SDS011;38010;53.264;6.592;2023-02-02T18:28:42;1.02;;;0.70;;